sensor_id;sensor_type;location;lat;lon;timestamp;P1;durP1;ratioP1;P2;durP2;ratioP2
16969;SDS011;8601;48.718;8.992;2022-11-20T00:01:26;5.33;;;4.83;;
16969;SDS011;8601;48.718;8.992;2022-11-20T00:03:55;5.27;;;4.70;;
16969;SDS011;8601;48.718;8.992;2022-11-20T00:06:24;5.60;;;4.63;;
16969;SDS011;8601;48.718;8.992;2022-11-20T00:08:53;5.13;;;4.70;;
16969;SDS011;8601;48.718;8.992;2022-11-20T00:11:22;5.63;;;4.80;;
16969;SDS011;8601;48.718;8.992;2022-11-20T00:13:52;5.37;;;4.87;;
16969;SDS011;8601;48.718;8.992;2022-11-20T00:16:23;5.40;;;4.90;;
16969;SDS011;8601;48.718;8.992;2022-11-20T00:18:52;5.33;;;4.83;;
16969;SDS011;8601;48.718;8.992;2022-11-20T00:21:20;6.80;;;4.63;;
16969;SDS011;8601;48.718;8.992;2022-11-20T00:23:50;5.77;;;5.03;;
16969;SDS011;8601;48.718;8.992;2022-11-20T00:26:18;5.80;;;5.30;;
16969;SDS011;8601;48.718;8.992;2022-11-20T00:28:48;5.90;;;5.13;;
16969;SDS011;8601;48.718;8.992;2022-11-20T00:31:18;5.73;;;5.17;;
16969;SDS011;8601;48.718;8.992;2022-11-20T00:33:45;6.20;;;5.60;;
16969;SDS011;8601;48.718;8.992;2022-11-20T00:36:13;6.17;;;5.57;;
16969;SDS011;8601;48.718;8.992;2022-11-20T00:38:41;5.80;;;5.30;;
16969;SDS011;8601;48.718;8.992;2022-11-20T00:41:09;5.97;;;5.40;;
16969;SDS011;8601;48.718;8.992;2022-11-20T00:43:37;7.57;;;5.50;;
16969;SDS011;8601;48.718;8.992;2022-11-20T00:46:05;6.43;;;5.03;;
16969;SDS011;8601;48.718;8.992;2022-11-20T00:48:35;5.90;;;5.23;;
16969;SDS011;8601;48.718;8.992;2022-11-20T00:51:10;5.43;;;4.93;;
16969;SDS011;8601;48.718;8.992;2022-11-20T00:53:39;5.53;;;4.93;;
16969;SDS011;8601;48.718;8.992;2022-11-20T00:56:06;6.57;;;5.67;;
16969;SDS011;8601;48.718;8.992;2022-11-20T00:58:36;6.03;;;5.50;;
16969;SDS011;8601;48.718;8.992;2022-11-20T01:01:04;5.60;;;5.03;;
16969;SDS011;8601;48.718;8.992;2022-11-20T01:03:35;6.53;;;5.27;;
16969;SDS011;8601;48.718;8.992;2022-11-20T01:06:03;5.47;;;4.97;;
16969;SDS011;8601;48.718;8.992;2022-11-20T01:08:31;6.47;;;5.87;;
16969;SDS011;8601;48.718;8.992;2022-11-20T01:10:59;6.67;;;5.10;;
16969;SDS011;8601;48.718;8.992;2022-11-20T01:13:28;5.50;;;4.90;;
16969;SDS011;8601;48.718;8.992;2022-11-20T01:16:05;5.30;;;4.80;;
16969;SDS011;8601;48.718;8.992;2022-11-20T01:18:35;5.50;;;4.93;;
16969;SDS011;8601;48.718;8.992;2022-11-20T01:21:03;5.80;;;4.90;;
16969;SDS011;8601;48.718;8.992;2022-11-20T01:23:32;5.97;;;5.47;;
16969;SDS011;8601;48.718;8.992;2022-11-20T01:26:01;5.87;;;5.37;;
16969;SDS011;8601;48.718;8.992;2022-11-20T01:28:28;5.57;;;5.00;;
16969;SDS011;8601;48.718;8.992;2022-11-20T01:30:56;5.30;;;4.90;;
16969;SDS011;8601;48.718;8.992;2022-11-20T01:33:23;5.47;;;4.97;;
16969;SDS011;8601;48.718;8.992;2022-11-20T01:35:52;5.60;;;5.10;;
16969;SDS011;8601;48.718;8.992;2022-11-20T01:38:19;5.90;;;5.30;;
16969;SDS011;8601;48.718;8.992;2022-11-20T01:40:53;7.07;;;5.40;;
16969;SDS011;8601;48.718;8.992;2022-11-20T01:43:21;5.83;;;5.23;;
16969;SDS011;8601;48.718;8.992;2022-11-20T01:45:53;5.87;;;5.37;;
16969;SDS011;8601;48.718;8.992;2022-11-20T01:48:38;5.67;;;5.07;;
16969;SDS011;8601;48.718;8.992;2022-11-20T01:51:12;5.23;;;4.73;;
16969;SDS011;8601;48.718;8.992;2022-11-20T01:53:44;6.70;;;5.10;;
16969;SDS011;8601;48.718;8.992;2022-11-20T01:56:12;5.07;;;4.60;;
16969;SDS011;8601;48.718;8.992;2022-11-20T01:58:42;5.33;;;4.60;;
16969;SDS011;8601;48.718;8.992;2022-11-20T02:01:12;5.17;;;4.27;;
16969;SDS011;8601;48.718;8.992;2022-11-20T02:03:40;5.80;;;4.43;;
16969;SDS011;8601;48.718;8.992;2022-11-20T02:06:09;4.97;;;4.47;;
16969;SDS011;8601;48.718;8.992;2022-11-20T02:08:41;5.13;;;4.63;;
16969;SDS011;8601;48.718;8.992;2022-11-20T02:11:08;5.03;;;4.60;;
16969;SDS011;8601;48.718;8.992;2022-11-20T02:13:35;5.37;;;4.87;;
16969;SDS011;8601;48.718;8.992;2022-11-20T02:16:11;5.63;;;5.13;;
16969;SDS011;8601;48.718;8.992;2022-11-20T02:18:41;4.53;;;4.13;;
16969;SDS011;8601;48.718;8.992;2022-11-20T02:21:12;4.70;;;4.27;;
16969;SDS011;8601;48.718;8.992;2022-11-20T02:24:01;4.73;;;4.33;;
16969;SDS011;8601;48.718;8.992;2022-11-20T02:26:30;4.57;;;4.03;;
16969;SDS011;8601;48.718;8.992;2022-11-20T02:28:58;5.10;;;4.70;;
16969;SDS011;8601;48.718;8.992;2022-11-20T02:31:28;5.17;;;4.67;;
16969;SDS011;8601;48.718;8.992;2022-11-20T02:33:55;6.20;;;4.57;;
16969;SDS011;8601;48.718;8.992;2022-11-20T02:36:24;4.50;;;3.87;;
16969;SDS011;8601;48.718;8.992;2022-11-20T02:38:53;4.53;;;4.03;;
16969;SDS011;8601;48.718;8.992;2022-11-20T02:41:22;5.17;;;4.13;;
16969;SDS011;8601;48.718;8.992;2022-11-20T02:43:57;5.30;;;4.80;;
16969;SDS011;8601;48.718;8.992;2022-11-20T02:46:24;4.67;;;4.23;;
16969;SDS011;8601;48.718;8.992;2022-11-20T02:48:51;6.83;;;4.57;;
16969;SDS011;8601;48.718;8.992;2022-11-20T02:51:17;4.87;;;4.47;;
16969;SDS011;8601;48.718;8.992;2022-11-20T02:53:46;4.80;;;4.33;;
16969;SDS011;8601;48.718;8.992;2022-11-20T02:56:13;5.27;;;4.80;;
16969;SDS011;8601;48.718;8.992;2022-11-20T02:58:41;5.63;;;4.23;;
16969;SDS011;8601;48.718;8.992;2022-11-20T03:01:08;5.17;;;4.50;;
16969;SDS011;8601;48.718;8.992;2022-11-20T03:03:35;4.80;;;4.30;;
16969;SDS011;8601;48.718;8.992;2022-11-20T03:06:02;4.80;;;4.40;;
16969;SDS011;8601;48.718;8.992;2022-11-20T03:08:29;5.53;;;5.00;;
16969;SDS011;8601;48.718;8.992;2022-11-20T03:10:56;5.43;;;5.00;;
16969;SDS011;8601;48.718;8.992;2022-11-20T03:13:27;5.30;;;4.80;;
16969;SDS011;8601;48.718;8.992;2022-11-20T03:15:58;5.80;;;5.30;;
16969;SDS011;8601;48.718;8.992;2022-11-20T03:18:30;6.03;;;5.10;;
16969;SDS011;8601;48.718;8.992;2022-11-20T03:20:57;5.13;;;4.60;;
16969;SDS011;8601;48.718;8.992;2022-11-20T03:23:24;5.77;;;5.17;;
16969;SDS011;8601;48.718;8.992;2022-11-20T03:25:52;5.70;;;5.20;;
16969;SDS011;8601;48.718;8.992;2022-11-20T03:28:19;6.20;;;5.60;;
16969;SDS011;8601;48.718;8.992;2022-11-20T03:30:46;6.07;;;5.57;;
16969;SDS011;8601;48.718;8.992;2022-11-20T03:33:14;6.07;;;5.47;;
16969;SDS011;8601;48.718;8.992;2022-11-20T03:35:41;6.43;;;5.83;;
16969;SDS011;8601;48.718;8.992;2022-11-20T03:38:08;6.73;;;6.13;;
16969;SDS011;8601;48.718;8.992;2022-11-20T03:40:35;6.90;;;6.30;;
16969;SDS011;8601;48.718;8.992;2022-11-20T03:43:02;6.27;;;5.67;;
16969;SDS011;8601;48.718;8.992;2022-11-20T03:45:29;7.07;;;5.87;;
16969;SDS011;8601;48.718;8.992;2022-11-20T03:47:55;6.70;;;6.10;;
16969;SDS011;8601;48.718;8.992;2022-11-20T03:50:24;6.10;;;5.50;;
16969;SDS011;8601;48.718;8.992;2022-11-20T03:52:51;6.30;;;5.70;;
16969;SDS011;8601;48.718;8.992;2022-11-20T03:55:18;6.67;;;5.57;;
16969;SDS011;8601;48.718;8.992;2022-11-20T03:57:46;7.13;;;5.50;;
16969;SDS011;8601;48.718;8.992;2022-11-20T04:00:13;6.07;;;5.57;;
16969;SDS011;8601;48.718;8.992;2022-11-20T04:02:41;6.40;;;5.80;;
16969;SDS011;8601;48.718;8.992;2022-11-20T04:05:08;6.73;;;5.70;;
16969;SDS011;8601;48.718;8.992;2022-11-20T04:07:36;6.27;;;5.63;;
16969;SDS011;8601;48.718;8.992;2022-11-20T04:10:03;6.07;;;5.43;;
16969;SDS011;8601;48.718;8.992;2022-11-20T04:12:31;6.70;;;6.00;;
16969;SDS011;8601;48.718;8.992;2022-11-20T04:14:59;6.53;;;5.70;;
16969;SDS011;8601;48.718;8.992;2022-11-20T04:17:26;6.47;;;5.87;;
16969;SDS011;8601;48.718;8.992;2022-11-20T04:19:53;6.60;;;5.40;;
16969;SDS011;8601;48.718;8.992;2022-11-20T04:22:20;7.10;;;6.40;;
16969;SDS011;8601;48.718;8.992;2022-11-20T04:24:48;6.07;;;5.50;;
16969;SDS011;8601;48.718;8.992;2022-11-20T04:27:15;5.77;;;5.27;;
16969;SDS011;8601;48.718;8.992;2022-11-20T04:29:42;5.90;;;5.30;;
16969;SDS011;8601;48.718;8.992;2022-11-20T04:32:09;5.47;;;4.97;;
16969;SDS011;8601;48.718;8.992;2022-11-20T04:34:36;6.10;;;5.50;;
16969;SDS011;8601;48.718;8.992;2022-11-20T04:37:03;6.63;;;5.73;;
16969;SDS011;8601;48.718;8.992;2022-11-20T04:39:30;5.40;;;4.90;;
16969;SDS011;8601;48.718;8.992;2022-11-20T04:41:58;6.10;;;5.57;;
16969;SDS011;8601;48.718;8.992;2022-11-20T04:44:39;6.33;;;4.87;;
16969;SDS011;8601;48.718;8.992;2022-11-20T04:47:06;5.70;;;5.20;;
16969;SDS011;8601;48.718;8.992;2022-11-20T04:49:33;6.07;;;5.50;;
16969;SDS011;8601;48.718;8.992;2022-11-20T04:51:59;6.33;;;5.60;;
16969;SDS011;8601;48.718;8.992;2022-11-20T04:54:26;6.50;;;5.40;;
16969;SDS011;8601;48.718;8.992;2022-11-20T04:56:53;5.93;;;5.43;;
16969;SDS011;8601;48.718;8.992;2022-11-20T04:59:21;6.40;;;5.80;;
16969;SDS011;8601;48.718;8.992;2022-11-20T05:01:48;6.80;;;6.10;;
16969;SDS011;8601;48.718;8.992;2022-11-20T05:04:15;6.60;;;5.70;;
16969;SDS011;8601;48.718;8.992;2022-11-20T05:06:42;6.30;;;5.50;;
16969;SDS011;8601;48.718;8.992;2022-11-20T05:09:10;5.97;;;5.47;;
16969;SDS011;8601;48.718;8.992;2022-11-20T05:11:37;7.53;;;5.47;;
16969;SDS011;8601;48.718;8.992;2022-11-20T05:14:04;6.03;;;5.53;;
16969;SDS011;8601;48.718;8.992;2022-11-20T05:16:33;6.80;;;5.23;;
16969;SDS011;8601;48.718;8.992;2022-11-20T05:19:01;5.30;;;4.80;;
16969;SDS011;8601;48.718;8.992;2022-11-20T05:21:29;5.90;;;5.30;;
16969;SDS011;8601;48.718;8.992;2022-11-20T05:23:56;7.17;;;4.87;;
16969;SDS011;8601;48.718;8.992;2022-11-20T05:26:23;6.23;;;5.10;;
16969;SDS011;8601;48.718;8.992;2022-11-20T05:28:50;5.97;;;5.37;;
16969;SDS011;8601;48.718;8.992;2022-11-20T05:31:18;5.63;;;5.00;;
16969;SDS011;8601;48.718;8.992;2022-11-20T05:33:48;6.97;;;6.33;;
16969;SDS011;8601;48.718;8.992;2022-11-20T05:36:15;7.10;;;5.07;;
16969;SDS011;8601;48.718;8.992;2022-11-20T05:38:43;7.00;;;5.20;;
16969;SDS011;8601;48.718;8.992;2022-11-20T05:41:11;5.47;;;5.00;;
16969;SDS011;8601;48.718;8.992;2022-11-20T05:43:40;5.33;;;4.93;;
16969;SDS011;8601;48.718;8.992;2022-11-20T05:46:08;5.57;;;4.47;;
16969;SDS011;8601;48.718;8.992;2022-11-20T05:48:37;5.40;;;4.83;;
16969;SDS011;8601;48.718;8.992;2022-11-20T05:51:08;5.07;;;4.60;;
16969;SDS011;8601;48.718;8.992;2022-11-20T05:53:37;5.37;;;4.87;;
16969;SDS011;8601;48.718;8.992;2022-11-20T05:56:05;5.40;;;4.90;;
16969;SDS011;8601;48.718;8.992;2022-11-20T05:58:35;5.87;;;5.27;;
16969;SDS011;8601;48.718;8.992;2022-11-20T06:01:03;5.20;;;4.70;;
16969;SDS011;8601;48.718;8.992;2022-11-20T06:03:31;5.17;;;4.67;;
16969;SDS011;8601;48.718;8.992;2022-11-20T06:05:58;4.97;;;4.53;;
16969;SDS011;8601;48.718;8.992;2022-11-20T06:08:27;5.70;;;5.10;;
16969;SDS011;8601;48.718;8.992;2022-11-20T06:10:54;5.50;;;4.97;;
16969;SDS011;8601;48.718;8.992;2022-11-20T06:13:21;5.80;;;5.20;;
16969;SDS011;8601;48.718;8.992;2022-11-20T06:15:54;5.20;;;4.70;;
16969;SDS011;8601;48.718;8.992;2022-11-20T06:18:20;4.90;;;4.40;;
16969;SDS011;8601;48.718;8.992;2022-11-20T06:20:47;4.40;;;4.10;;
16969;SDS011;8601;48.718;8.992;2022-11-20T06:23:14;4.40;;;4.10;;
16969;SDS011;8601;48.718;8.992;2022-11-20T06:25:43;5.13;;;4.40;;
16969;SDS011;8601;48.718;8.992;2022-11-20T06:28:10;4.40;;;4.00;;
16969;SDS011;8601;48.718;8.992;2022-11-20T06:30:37;4.60;;;4.20;;
16969;SDS011;8601;48.718;8.992;2022-11-20T06:33:10;4.40;;;4.00;;
16969;SDS011;8601;48.718;8.992;2022-11-20T06:35:51;4.27;;;3.97;;
16969;SDS011;8601;48.718;8.992;2022-11-20T06:38:19;4.63;;;4.23;;
16969;SDS011;8601;48.718;8.992;2022-11-20T06:40:48;5.60;;;4.40;;
16969;SDS011;8601;48.718;8.992;2022-11-20T06:43:14;4.47;;;3.77;;
16969;SDS011;8601;48.718;8.992;2022-11-20T06:45:42;4.23;;;3.80;;
16969;SDS011;8601;48.718;8.992;2022-11-20T06:48:08;4.70;;;4.30;;
16969;SDS011;8601;48.718;8.992;2022-11-20T06:50:35;4.70;;;4.30;;
16969;SDS011;8601;48.718;8.992;2022-11-20T06:53:03;4.67;;;4.27;;
16969;SDS011;8601;48.718;8.992;2022-11-20T06:55:31;4.50;;;4.10;;
16969;SDS011;8601;48.718;8.992;2022-11-20T06:58:00;4.27;;;3.87;;
16969;SDS011;8601;48.718;8.992;2022-11-20T07:00:27;4.37;;;4.00;;
16969;SDS011;8601;48.718;8.992;2022-11-20T07:02:54;4.43;;;3.83;;
16969;SDS011;8601;48.718;8.992;2022-11-20T07:05:21;4.53;;;4.13;;
16969;SDS011;8601;48.718;8.992;2022-11-20T07:07:48;4.03;;;3.73;;
16969;SDS011;8601;48.718;8.992;2022-11-20T07:10:26;3.93;;;3.63;;
16969;SDS011;8601;48.718;8.992;2022-11-20T07:12:53;5.43;;;4.00;;
16969;SDS011;8601;48.718;8.992;2022-11-20T07:15:22;4.50;;;4.10;;
16969;SDS011;8601;48.718;8.992;2022-11-20T07:17:50;4.20;;;3.80;;
16969;SDS011;8601;48.718;8.992;2022-11-20T07:20:17;4.20;;;3.80;;
16969;SDS011;8601;48.718;8.992;2022-11-20T07:22:44;4.73;;;4.33;;
16969;SDS011;8601;48.718;8.992;2022-11-20T07:25:12;7.23;;;4.27;;
16969;SDS011;8601;48.718;8.992;2022-11-20T07:27:39;4.30;;;4.00;;
16969;SDS011;8601;48.718;8.992;2022-11-20T07:30:06;4.70;;;3.87;;
16969;SDS011;8601;48.718;8.992;2022-11-20T07:32:35;4.27;;;3.80;;
16969;SDS011;8601;48.718;8.992;2022-11-20T07:35:04;3.93;;;3.63;;
16969;SDS011;8601;48.718;8.992;2022-11-20T07:37:33;5.20;;;4.10;;
16969;SDS011;8601;48.718;8.992;2022-11-20T07:40:01;4.03;;;3.63;;
16969;SDS011;8601;48.718;8.992;2022-11-20T07:42:28;4.33;;;3.67;;
16969;SDS011;8601;48.718;8.992;2022-11-20T07:44:59;3.80;;;3.50;;
16969;SDS011;8601;48.718;8.992;2022-11-20T07:47:27;4.03;;;3.63;;
16969;SDS011;8601;48.718;8.992;2022-11-20T07:49:55;3.80;;;3.50;;
16969;SDS011;8601;48.718;8.992;2022-11-20T07:52:24;4.30;;;3.90;;
16969;SDS011;8601;48.718;8.992;2022-11-20T07:54:57;5.07;;;3.90;;
16969;SDS011;8601;48.718;8.992;2022-11-20T07:57:26;4.13;;;3.73;;
16969;SDS011;8601;48.718;8.992;2022-11-20T08:00:00;5.10;;;4.20;;
16969;SDS011;8601;48.718;8.992;2022-11-20T08:02:30;4.10;;;3.70;;
16969;SDS011;8601;48.718;8.992;2022-11-20T08:04:58;4.07;;;3.60;;
16969;SDS011;8601;48.718;8.992;2022-11-20T08:07:35;3.23;;;2.90;;
16969;SDS011;8601;48.718;8.992;2022-11-20T08:10:02;3.77;;;3.27;;
16969;SDS011;8601;48.718;8.992;2022-11-20T08:12:30;3.87;;;3.47;;
16969;SDS011;8601;48.718;8.992;2022-11-20T08:15:14;5.27;;;3.33;;
16969;SDS011;8601;48.718;8.992;2022-11-20T08:17:41;3.17;;;2.97;;
16969;SDS011;8601;48.718;8.992;2022-11-20T08:20:09;4.60;;;3.27;;
16969;SDS011;8601;48.718;8.992;2022-11-20T08:22:36;3.87;;;3.23;;
16969;SDS011;8601;48.718;8.992;2022-11-20T08:25:09;3.00;;;2.80;;
16969;SDS011;8601;48.718;8.992;2022-11-20T08:27:37;2.70;;;2.50;;
16969;SDS011;8601;48.718;8.992;2022-11-20T08:30:04;2.60;;;2.40;;
16969;SDS011;8601;48.718;8.992;2022-11-20T08:32:31;2.40;;;2.27;;
16969;SDS011;8601;48.718;8.992;2022-11-20T08:35:00;2.50;;;2.30;;
16969;SDS011;8601;48.718;8.992;2022-11-20T08:37:28;2.20;;;2.10;;
16969;SDS011;8601;48.718;8.992;2022-11-20T08:39:55;2.80;;;2.60;;
16969;SDS011;8601;48.718;8.992;2022-11-20T08:42:22;4.27;;;2.70;;
16969;SDS011;8601;48.718;8.992;2022-11-20T08:44:49;2.63;;;2.43;;
16969;SDS011;8601;48.718;8.992;2022-11-20T08:47:16;2.23;;;2.10;;
16969;SDS011;8601;48.718;8.992;2022-11-20T08:49:43;2.30;;;2.10;;
16969;SDS011;8601;48.718;8.992;2022-11-20T08:52:10;2.33;;;2.13;;
16969;SDS011;8601;48.718;8.992;2022-11-20T08:54:38;1.97;;;1.87;;
16969;SDS011;8601;48.718;8.992;2022-11-20T08:57:05;2.30;;;2.10;;
16969;SDS011;8601;48.718;8.992;2022-11-20T08:59:32;2.43;;;2.23;;
16969;SDS011;8601;48.718;8.992;2022-11-20T09:01:58;2.07;;;1.87;;
16969;SDS011;8601;48.718;8.992;2022-11-20T09:04:25;2.00;;;1.90;;
16969;SDS011;8601;48.718;8.992;2022-11-20T09:06:52;1.93;;;1.83;;
16969;SDS011;8601;48.718;8.992;2022-11-20T09:09:20;2.10;;;1.60;;
16969;SDS011;8601;48.718;8.992;2022-11-20T09:11:48;1.90;;;1.80;;
16969;SDS011;8601;48.718;8.992;2022-11-20T09:14:20;2.47;;;1.93;;
16969;SDS011;8601;48.718;8.992;2022-11-20T09:16:49;1.50;;;1.40;;
16969;SDS011;8601;48.718;8.992;2022-11-20T09:19:18;1.40;;;1.40;;
16969;SDS011;8601;48.718;8.992;2022-11-20T09:21:45;1.63;;;1.53;;
16969;SDS011;8601;48.718;8.992;2022-11-20T09:24:13;1.37;;;1.33;;
16969;SDS011;8601;48.718;8.992;2022-11-20T09:26:41;1.37;;;1.37;;
16969;SDS011;8601;48.718;8.992;2022-11-20T09:31:47;1.57;;;1.47;;
16969;SDS011;8601;48.718;8.992;2022-11-20T09:34:14;1.07;;;1.07;;
16969;SDS011;8601;48.718;8.992;2022-11-20T09:36:42;1.50;;;1.40;;
16969;SDS011;8601;48.718;8.992;2022-11-20T09:39:10;1.17;;;1.17;;
16969;SDS011;8601;48.718;8.992;2022-11-20T09:41:44;1.47;;;1.47;;
16969;SDS011;8601;48.718;8.992;2022-11-20T09:44:36;1.43;;;1.33;;
16969;SDS011;8601;48.718;8.992;2022-11-20T09:47:16;1.80;;;1.70;;
16969;SDS011;8601;48.718;8.992;2022-11-20T09:49:53;1.87;;;1.77;;
16969;SDS011;8601;48.718;8.992;2022-11-20T09:59:04;1.43;;;1.30;;
16969;SDS011;8601;48.718;8.992;2022-11-20T10:01:35;1.40;;;1.30;;
16969;SDS011;8601;48.718;8.992;2022-11-20T10:04:22;1.67;;;1.57;;
16969;SDS011;8601;48.718;8.992;2022-11-20T10:06:50;1.70;;;1.60;;
16969;SDS011;8601;48.718;8.992;2022-11-20T10:09:24;1.33;;;1.30;;
16969;SDS011;8601;48.718;8.992;2022-11-20T10:12:00;1.67;;;1.53;;
16969;SDS011;8601;48.718;8.992;2022-11-20T10:14:40;1.60;;;1.50;;
16969;SDS011;8601;48.718;8.992;2022-11-20T10:17:24;1.70;;;1.60;;
16969;SDS011;8601;48.718;8.992;2022-11-20T10:23:01;1.77;;;1.67;;
16969;SDS011;8601;48.718;8.992;2022-11-20T10:25:43;1.50;;;1.40;;
16969;SDS011;8601;48.718;8.992;2022-11-20T10:28:24;2.17;;;1.87;;
16969;SDS011;8601;48.718;8.992;2022-11-20T10:31:13;2.00;;;1.90;;
16969;SDS011;8601;48.718;8.992;2022-11-20T10:33:52;1.60;;;1.50;;
16969;SDS011;8601;48.718;8.992;2022-11-20T10:36:25;1.57;;;1.47;;
16969;SDS011;8601;48.718;8.992;2022-11-20T10:38:58;1.57;;;1.47;;
16969;SDS011;8601;48.718;8.992;2022-11-20T10:41:28;2.00;;;1.73;;
16969;SDS011;8601;48.718;8.992;2022-11-20T10:44:00;1.57;;;1.47;;
16969;SDS011;8601;48.718;8.992;2022-11-20T10:46:33;2.00;;;1.80;;
16969;SDS011;8601;48.718;8.992;2022-11-20T10:49:11;1.83;;;1.70;;
16969;SDS011;8601;48.718;8.992;2022-11-20T10:51:43;4.00;;;1.50;;
16969;SDS011;8601;48.718;8.992;2022-11-20T10:54:19;1.80;;;1.60;;
16969;SDS011;8601;48.718;8.992;2022-11-20T10:57:00;5.73;;;1.70;;
16969;SDS011;8601;48.718;8.992;2022-11-20T10:59:37;2.20;;;1.80;;
16969;SDS011;8601;48.718;8.992;2022-11-20T11:02:17;4.00;;;2.00;;
16969;SDS011;8601;48.718;8.992;2022-11-20T11:04:47;2.33;;;1.80;;
16969;SDS011;8601;48.718;8.992;2022-11-20T11:09:59;1.87;;;1.77;;
16969;SDS011;8601;48.718;8.992;2022-11-20T11:12:27;1.83;;;1.73;;
16969;SDS011;8601;48.718;8.992;2022-11-20T11:14:55;1.73;;;1.63;;
16969;SDS011;8601;48.718;8.992;2022-11-20T11:17:24;2.00;;;1.90;;
16969;SDS011;8601;48.718;8.992;2022-11-20T11:20:01;3.77;;;2.13;;
16969;SDS011;8601;48.718;8.992;2022-11-20T11:22:43;2.33;;;2.13;;
16969;SDS011;8601;48.718;8.992;2022-11-20T11:25:22;3.07;;;2.00;;
16969;SDS011;8601;48.718;8.992;2022-11-20T11:27:53;3.27;;;1.90;;
16969;SDS011;8601;48.718;8.992;2022-11-20T11:30:21;1.90;;;1.67;;
16969;SDS011;8601;48.718;8.992;2022-11-20T11:33:01;2.80;;;1.70;;
16969;SDS011;8601;48.718;8.992;2022-11-20T11:35:30;2.40;;;2.00;;
16969;SDS011;8601;48.718;8.992;2022-11-20T11:38:02;3.10;;;2.07;;
16969;SDS011;8601;48.718;8.992;2022-11-20T11:40:32;1.83;;;1.70;;
16969;SDS011;8601;48.718;8.992;2022-11-20T11:43:02;2.37;;;1.90;;
16969;SDS011;8601;48.718;8.992;2022-11-20T11:45:53;2.60;;;1.90;;
16969;SDS011;8601;48.718;8.992;2022-11-20T11:48:20;2.33;;;1.97;;
16969;SDS011;8601;48.718;8.992;2022-11-20T11:50:49;2.93;;;1.60;;
16969;SDS011;8601;48.718;8.992;2022-11-20T11:53:17;5.90;;;1.97;;
16969;SDS011;8601;48.718;8.992;2022-11-20T11:55:47;1.67;;;1.57;;
16969;SDS011;8601;48.718;8.992;2022-11-20T11:58:27;3.00;;;1.60;;
16969;SDS011;8601;48.718;8.992;2022-11-20T12:01:20;3.40;;;1.50;;
16969;SDS011;8601;48.718;8.992;2022-11-20T12:03:54;3.03;;;1.43;;
16969;SDS011;8601;48.718;8.992;2022-11-20T12:06:28;3.13;;;2.07;;
16969;SDS011;8601;48.718;8.992;2022-11-20T12:08:59;3.63;;;1.50;;
16969;SDS011;8601;48.718;8.992;2022-11-20T12:14:33;1.73;;;1.40;;
16969;SDS011;8601;48.718;8.992;2022-11-20T12:17:01;2.10;;;1.70;;
16969;SDS011;8601;48.718;8.992;2022-11-20T12:19:29;2.80;;;2.07;;
16969;SDS011;8601;48.718;8.992;2022-11-20T12:25:07;2.97;;;1.70;;
16969;SDS011;8601;48.718;8.992;2022-11-20T12:27:47;2.27;;;1.60;;
16969;SDS011;8601;48.718;8.992;2022-11-20T12:30:24;2.40;;;1.50;;
16969;SDS011;8601;48.718;8.992;2022-11-20T12:32:59;1.87;;;1.50;;
16969;SDS011;8601;48.718;8.992;2022-11-20T12:38:38;2.33;;;1.63;;
16969;SDS011;8601;48.718;8.992;2022-11-20T12:41:39;2.53;;;1.23;;
16969;SDS011;8601;48.718;8.992;2022-11-20T12:44:39;1.43;;;1.33;;
16969;SDS011;8601;48.718;8.992;2022-11-20T12:47:43;1.43;;;1.33;;
16969;SDS011;8601;48.718;8.992;2022-11-20T12:50:39;3.83;;;1.70;;
16969;SDS011;8601;48.718;8.992;2022-11-20T12:53:19;1.73;;;1.43;;
16969;SDS011;8601;48.718;8.992;2022-11-20T12:56:15;1.87;;;1.00;;
16969;SDS011;8601;48.718;8.992;2022-11-20T12:58:59;2.60;;;1.20;;
16969;SDS011;8601;48.718;8.992;2022-11-20T13:04:52;1.87;;;1.27;;
16969;SDS011;8601;48.718;8.992;2022-11-20T13:07:29;1.40;;;1.30;;
16969;SDS011;8601;48.718;8.992;2022-11-20T13:12:56;1.43;;;1.30;;
16969;SDS011;8601;48.718;8.992;2022-11-20T13:15:32;3.40;;;1.30;;
16969;SDS011;8601;48.718;8.992;2022-11-20T13:18:08;2.13;;;1.43;;
16969;SDS011;8601;48.718;8.992;2022-11-20T13:20:36;2.03;;;1.30;;
16969;SDS011;8601;48.718;8.992;2022-11-20T13:23:08;1.30;;;1.20;;
16969;SDS011;8601;48.718;8.992;2022-11-20T13:25:36;1.30;;;1.20;;
16969;SDS011;8601;48.718;8.992;2022-11-20T13:30:55;1.73;;;1.30;;
16969;SDS011;8601;48.718;8.992;2022-11-20T13:33:25;1.53;;;1.23;;
16969;SDS011;8601;48.718;8.992;2022-11-20T13:36:05;1.87;;;1.50;;
16969;SDS011;8601;48.718;8.992;2022-11-20T13:38:46;2.60;;;1.40;;
16969;SDS011;8601;48.718;8.992;2022-11-20T13:41:22;2.13;;;1.30;;
16969;SDS011;8601;48.718;8.992;2022-11-20T13:44:04;2.10;;;1.60;;
16969;SDS011;8601;48.718;8.992;2022-11-20T13:46:37;4.47;;;2.17;;
16969;SDS011;8601;48.718;8.992;2022-11-20T13:52:01;3.60;;;2.33;;
16969;SDS011;8601;48.718;8.992;2022-11-20T13:54:58;3.33;;;1.63;;
16969;SDS011;8601;48.718;8.992;2022-11-20T14:00:44;3.70;;;1.50;;
16969;SDS011;8601;48.718;8.992;2022-11-20T14:03:17;1.60;;;1.50;;
16969;SDS011;8601;48.718;8.992;2022-11-20T14:05:49;1.63;;;1.53;;
16969;SDS011;8601;48.718;8.992;2022-11-20T14:11:21;2.77;;;2.30;;
16969;SDS011;8601;48.718;8.992;2022-11-20T14:13:54;2.00;;;1.60;;
16969;SDS011;8601;48.718;8.992;2022-11-20T14:16:27;1.47;;;1.37;;
16969;SDS011;8601;48.718;8.992;2022-11-20T14:18:55;3.13;;;1.70;;
16969;SDS011;8601;48.718;8.992;2022-11-20T14:21:23;3.13;;;1.60;;
16969;SDS011;8601;48.718;8.992;2022-11-20T14:24:02;2.17;;;1.43;;
16969;SDS011;8601;48.718;8.992;2022-11-20T14:26:30;1.60;;;1.50;;
16969;SDS011;8601;48.718;8.992;2022-11-20T14:31:51;2.10;;;1.53;;
16969;SDS011;8601;48.718;8.992;2022-11-20T14:34:20;4.00;;;1.70;;
16969;SDS011;8601;48.718;8.992;2022-11-20T14:39:36;2.87;;;1.93;;
16969;SDS011;8601;48.718;8.992;2022-11-20T14:42:14;2.40;;;1.80;;
16969;SDS011;8601;48.718;8.992;2022-11-20T14:44:42;6.73;;;4.53;;
16969;SDS011;8601;48.718;8.992;2022-11-20T14:49:46;2.37;;;1.73;;
16969;SDS011;8601;48.718;8.992;2022-11-20T14:52:15;4.37;;;2.67;;
16969;SDS011;8601;48.718;8.992;2022-11-20T14:54:49;2.43;;;2.10;;
16969;SDS011;8601;48.718;8.992;2022-11-20T14:57:24;4.80;;;2.80;;
16969;SDS011;8601;48.718;8.992;2022-11-20T15:02:49;3.70;;;2.60;;
16969;SDS011;8601;48.718;8.992;2022-11-20T15:05:19;3.83;;;2.50;;
16969;SDS011;8601;48.718;8.992;2022-11-20T15:07:50;2.97;;;2.20;;
16969;SDS011;8601;48.718;8.992;2022-11-20T15:10:22;3.37;;;2.10;;
16969;SDS011;8601;48.718;8.992;2022-11-20T15:12:51;2.80;;;2.40;;
16969;SDS011;8601;48.718;8.992;2022-11-20T15:15:21;3.00;;;2.60;;
16969;SDS011;8601;48.718;8.992;2022-11-20T15:17:57;2.73;;;2.10;;
16969;SDS011;8601;48.718;8.992;2022-11-20T15:20:26;4.23;;;2.37;;
16969;SDS011;8601;48.718;8.992;2022-11-20T15:23:07;3.17;;;2.20;;
16969;SDS011;8601;48.718;8.992;2022-11-20T15:25:37;3.13;;;2.90;;
16969;SDS011;8601;48.718;8.992;2022-11-20T15:28:04;4.10;;;2.80;;
16969;SDS011;8601;48.718;8.992;2022-11-20T15:30:42;2.53;;;2.33;;
16969;SDS011;8601;48.718;8.992;2022-11-20T15:33:11;2.40;;;2.20;;
16969;SDS011;8601;48.718;8.992;2022-11-20T15:35:49;2.70;;;2.20;;
16969;SDS011;8601;48.718;8.992;2022-11-20T15:38:16;9.77;;;7.40;;
16969;SDS011;8601;48.718;8.992;2022-11-20T15:40:50;3.20;;;2.90;;
16969;SDS011;8601;48.718;8.992;2022-11-20T15:43:17;2.97;;;2.33;;
16969;SDS011;8601;48.718;8.992;2022-11-20T15:45:45;4.13;;;2.60;;
16969;SDS011;8601;48.718;8.992;2022-11-20T15:48:16;2.77;;;2.47;;
16969;SDS011;8601;48.718;8.992;2022-11-20T15:50:46;5.43;;;4.30;;
16969;SDS011;8601;48.718;8.992;2022-11-20T15:53:23;3.63;;;3.43;;
16969;SDS011;8601;48.718;8.992;2022-11-20T15:55:52;5.67;;;3.17;;
16969;SDS011;8601;48.718;8.992;2022-11-20T15:58:20;2.67;;;2.47;;
16969;SDS011;8601;48.718;8.992;2022-11-20T16:00:49;4.57;;;3.80;;
16969;SDS011;8601;48.718;8.992;2022-11-20T16:05:51;3.23;;;2.93;;
16969;SDS011;8601;48.718;8.992;2022-11-20T16:08:20;3.17;;;2.87;;
16969;SDS011;8601;48.718;8.992;2022-11-20T16:10:47;3.87;;;3.17;;
16969;SDS011;8601;48.718;8.992;2022-11-20T16:13:14;2.57;;;2.37;;
16969;SDS011;8601;48.718;8.992;2022-11-20T16:16:02;3.40;;;2.83;;
16969;SDS011;8601;48.718;8.992;2022-11-20T16:18:33;3.03;;;2.67;;